Time;durP1;ratioP1;P1;durP2;ratioP2;P2;SDS_P1;SDS_P2;PMS_P1;PMS_P2;Temp;Humidity;BMP_temperature;BMP_pressure;BME280_temperature;BME280_humidity;BME280_pressure;Samples;Min_cycle;Max_cycle;Signal;HPM_P1;HPM_P2
2021/12/27 00:01:02;;;;;;;34.90;16.90;;;;;;;9.04;100.00;100091.34;5095610;28;20081;-47
2021/12/27 00:03:28;;;;;;;34.05;16.40;;;;;;;9.00;100.00;100090.09;5095205;28;20052;-42
2021/12/27 00:05:53;;;;;;;34.85;16.67;;;;;;;8.95;100.00;100082.72;5095916;28;20059;-45
2021/12/27 00:08:19;;;;;;;34.67;17.17;;;;;;;9.08;100.00;100081.09;5094439;28;20464;-48
2021/12/27 00:10:45;;;;;;;30.20;15.10;;;;;;;9.23;100.00;100087.06;5095169;28;20028;-47
2021/12/27 00:13:10;;;;;;;38.97;18.17;;;;;;;9.13;100.00;100097.31;5094167;28;20035;-47
2021/12/27 00:15:36;;;;;;;33.90;16.27;;;;;;;9.12;100.00;100096.50;5094050;28;20042;-46
2021/12/27 00:18:03;;;;;;;35.33;15.68;;;;;;;8.99;100.00;100091.94;5094012;28;20043;-44
2021/12/27 00:20:28;;;;;;;34.35;15.65;;;;;;;9.12;100.00;100093.00;5094874;28;20036;-48
2021/12/27 00:22:54;;;;;;;31.45;15.65;;;;;;;9.23;100.00;100083.56;5076994;28;20034;-48
2021/12/27 00:25:20;;;;;;;40.70;16.27;;;;;;;9.18;100.00;100084.16;5094954;28;20081;-48
2021/12/27 00:27:46;;;;;;;36.05;15.88;;;;;;;9.25;100.00;100081.50;5093811;28;20072;-46
2021/12/27 00:30:13;;;;;;;38.92;18.83;;;;;;;9.27;100.00;100077.63;5093729;28;20032;-47
2021/12/27 00:32:43;;;;;;;34.00;15.60;;;;;;;9.34;100.00;100072.25;5095784;28;20363;-44
2021/12/27 00:35:10;;;;;;;32.70;16.42;;;;;;;9.44;100.00;100079.84;5095119;28;20092;-48
2021/12/27 00:37:36;;;;;;;34.15;16.75;;;;;;;9.32;100.00;100069.81;5094759;28;20086;-45
2021/12/27 00:40:04;;;;;;;35.92;18.05;;;;;;;9.44;100.00;100074.50;5093758;28;20433;-44
2021/12/27 00:42:29;;;;;;;40.63;18.38;;;;;;;9.50;100.00;100065.69;5094733;28;20039;-42
2021/12/27 00:44:55;;;;;;;31.92;16.83;;;;;;;9.44;100.00;100071.84;5093585;28;20032;-43
2021/12/27 00:47:21;;;;;;;42.53;17.30;;;;;;;9.18;100.00;100066.31;5094301;28;20047;-44
2021/12/27 00:49:46;;;;;;;37.60;17.40;;;;;;;9.33;100.00;100052.78;5094838;28;20032;-43
2021/12/27 00:52:12;;;;;;;41.00;16.50;;;;;;;9.42;100.00;100049.88;5094637;28;20273;-48
2021/12/27 00:54:38;;;;;;;37.63;16.60;;;;;;;9.47;100.00;100058.09;5093415;28;20032;-45
2021/12/27 00:57:03;;;;;;;39.17;18.03;;;;;;;9.26;100.00;100051.13;5093505;28;20032;-48
2021/12/27 00:59:29;;;;;;;40.60;17.30;;;;;;;9.41;100.00;100049.06;5094873;28;20476;-45
2021/12/27 01:01:56;;;;;;;35.03;17.60;;;;;;;9.25;100.00;100050.31;5094655;28;20040;-45
2021/12/27 01:04:22;;;;;;;41.85;17.50;;;;;;;9.26;100.00;100049.28;5094633;28;20040;-44
2021/12/27 01:06:47;;;;;;;39.63;18.25;;;;;;;9.36;100.00;100042.72;5094670;28;20038;-42
2021/12/27 01:09:20;;;;;;;41.50;17.77;;;;;;;9.26;100.00;100043.13;5094251;28;20047;-44
2021/12/27 01:12:09;;;;;;;41.22;19.48;;;;;;;9.13;100.00;100033.28;5094364;28;20076;-46
2021/12/27 01:14:41;;;;;;;37.60;16.70;;;;;;;9.39;100.00;100037.78;5094782;28;20039;-44
2021/12/27 01:17:07;;;;;;;37.15;18.23;;;;;;;9.52;100.00;100030.78;5094362;28;20047;-46
2021/12/27 01:19:33;;;;;;;42.78;18.45;;;;;;;9.29;100.00;100029.38;5093401;28;20040;-44
2021/12/27 01:21:58;;;;;;;39.72;17.90;;;;;;;9.07;100.00;100031.44;5094324;28;20036;-53
2021/12/27 01:24:24;;;;;;;37.25;17.98;;;;;;;9.48;100.00;100025.06;5093111;28;20040;-60
2021/12/27 01:26:50;;;;;;;40.43;18.83;;;;;;;9.37;100.00;100025.66;5094275;28;20043;-55
2021/12/27 01:29:15;;;;;;;45.40;18.77;;;;;;;9.44;100.00;100023.81;5093431;28;20478;-58
2021/12/27 01:31:41;;;;;;;39.47;18.17;;;;;;;9.41;100.00;100029.56;5094837;28;20277;-54
2021/12/27 01:34:06;;;;;;;36.73;17.30;;;;;;;9.60;100.00;100023.38;5094253;28;20666;-55
2021/12/27 01:36:32;;;;;;;36.87;16.87;;;;;;;9.68;100.00;100019.66;5092731;28;20064;-53
2021/12/27 01:39:04;;;;;;;38.38;17.60;;;;;;;9.57;100.00;100022.97;5093774;28;20028;-55
2021/12/27 01:41:30;;;;;;;38.63;18.38;;;;;;;9.48;100.00;100022.38;5093862;28;20119;-55
2021/12/27 01:43:56;;;;;;;38.40;18.33;;;;;;;9.50;100.00;100014.16;5094207;28;20115;-52
2021/12/27 01:46:24;;;;;;;34.70;17.57;;;;;;;9.50;100.00;100006.97;5094265;28;20486;-55
2021/12/27 01:48:54;;;;;;;32.30;16.10;;;;;;;9.54;100.00;100015.38;5092972;28;20118;-56
2021/12/27 01:51:22;;;;;;;35.65;17.25;;;;;;;9.54;100.00;100010.88;5093876;28;20073;-56
2021/12/27 01:53:48;;;;;;;31.85;16.35;;;;;;;9.41;100.00;100000.19;5076070;28;20045;-55
2021/12/27 01:56:16;;;;;;;32.13;16.08;;;;;;;9.65;100.00;100011.22;5093969;28;20036;-54
2021/12/27 01:58:43;;;;;;;37.17;16.77;;;;;;;9.66;100.00;100011.03;5093940;28;20055;-55
2021/12/27 02:01:10;;;;;;;30.23;16.02;;;;;;;9.61;100.00;100011.66;5093275;28;20040;-56
2021/12/27 02:03:38;;;;;;;32.35;16.35;;;;;;;9.55;100.00;100019.69;5093420;28;20032;-55
2021/12/27 02:06:08;;;;;;;31.08;16.17;;;;;;;9.60;100.00;100020.69;5094656;28;20113;-55
2021/12/27 02:08:38;;;;;;;36.80;16.92;;;;;;;9.72;100.00;100012.06;5094104;28;20124;-55
2021/12/27 02:11:05;;;;;;;35.63;16.77;;;;;;;9.58;100.00;100009.41;5093980;28;20048;-55
2021/12/27 02:13:31;;;;;;;35.38;15.77;;;;;;;9.43;100.00;100004.31;5092558;28;20048;-54
2021/12/27 02:15:56;;;;;;;30.15;13.68;;;;;;;9.63;100.00;99994.59;5093853;28;20443;-54
2021/12/27 02:18:22;;;;;;;40.63;17.83;;;;;;;9.81;100.00;100009.97;5092313;28;20033;-55
2021/12/27 02:20:48;;;;;;;39.63;18.42;;;;;;;9.75;100.00;100007.09;5092938;28;20035;-55
2021/12/27 02:23:16;;;;;;;38.42;17.10;;;;;;;9.43;100.00;100003.47;5096660;28;20036;-55
2021/12/27 02:25:48;;;;;;;35.67;17.02;;;;;;;9.57;100.00;100010.44;5102576;28;20028;-54
2021/12/27 02:28:15;;;;;;;33.90;16.85;;;;;;;9.60;100.00;99996.66;5096289;28;20436;-52
2021/12/27 02:30:43;;;;;;;34.85;17.17;;;;;;;9.78;100.00;99995.19;5093553;28;20024;-53
2021/12/27 02:33:10;;;;;;;36.10;15.88;;;;;;;9.84;100.00;99988.19;5092034;28;20036;-52
2021/12/27 02:35:42;;;;;;;37.40;16.60;;;;;;;9.57;100.00;99985.59;5093912;28;20063;-55
2021/12/27 02:38:11;;;;;;;36.35;18.13;;;;;;;9.56;100.00;99990.13;5092530;28;20039;-54
2021/12/27 02:40:38;;;;;;;32.75;16.10;;;;;;;9.71;100.00;99989.06;5093436;28;20031;-54
2021/12/27 02:43:07;;;;;;;37.03;16.88;;;;;;;9.72;100.00;99978.16;5092340;28;20039;-55
2021/12/27 02:45:36;;;;;;;35.53;16.55;;;;;;;9.78;100.00;99986.34;5093924;28;20036;-55
2021/12/27 02:48:03;;;;;;;38.00;17.85;;;;;;;9.77;100.00;99985.53;5092318;28;20494;-54
2021/12/27 02:50:29;;;;;;;;;;;;;;;9.91;100.00;99988.97;5093721;28;20020;-55
2021/12/27 02:52:55;;;;;;;36.75;16.50;;;;;;;9.94;100.00;99987.75;5093284;28;20248;-54
2021/12/27 02:55:21;;;;;;;38.67;17.70;;;;;;;9.85;100.00;99981.81;5093155;28;20039;-55
2021/12/27 02:57:50;;;;;;;39.33;17.95;;;;;;;9.79;100.00;99975.47;5092610;28;20455;-55
2021/12/27 03:00:40;;;;;;;36.88;16.73;;;;;;;9.91;100.00;99972.94;5093152;28;20042;-53
2021/12/27 03:03:07;;;;;;;44.10;17.00;;;;;;;9.82;100.00;99976.91;5093758;28;20055;-53
2021/12/27 03:05:33;;;;;;;36.75;16.80;;;;;;;9.88;100.00;99974.19;5097603;28;20052;-57
2021/12/27 03:07:58;;;;;;;35.72;16.40;;;;;;;9.92;100.00;99971.91;5098827;28;20032;-54
2021/12/27 03:10:28;;;;;;;38.28;17.65;;;;;;;9.90;100.00;99977.47;5096969;28;20063;-56
2021/12/27 03:12:55;;;;;;;34.20;17.42;;;;;;;9.97;100.00;99974.75;5096926;28;20051;-54
2021/12/27 03:15:23;;;;;;;33.83;17.08;;;;;;;9.87;100.00;99967.19;5096615;28;20028;-54
2021/12/27 03:17:51;;;;;;;39.75;18.02;;;;;;;9.98;100.00;99962.25;5096704;28;20069;-53
2021/12/27 03:20:18;;;;;;;41.35;18.20;;;;;;;10.02;100.00;99963.44;5096452;28;20067;-55
2021/12/27 03:22:44;;;;;;;40.78;17.17;;;;;;;10.01;100.00;99967.97;5095431;28;20050;-55
2021/12/27 03:25:14;;;;;;;44.80;17.10;;;;;;;9.81;100.00;99956.56;5095592;28;20028;-55
2021/12/27 03:27:40;;;;;;;40.03;17.88;;;;;;;9.95;100.00;99970.69;5095205;28;20367;-56
2021/12/27 03:30:12;;;;;;;42.67;17.75;;;;;;;9.58;100.00;99961.34;5078452;28;20035;-55
2021/12/27 03:32:38;;;;;;;45.40;17.83;;;;;;;9.95;100.00;99962.66;5095959;28;20411;-55
2021/12/27 03:35:10;;;;;;;40.70;19.02;;;;;;;9.85;100.00;99963.94;5095573;28;20051;-55
2021/12/27 03:37:38;;;;;;;43.70;18.27;;;;;;;9.81;100.00;99957.38;5095847;28;20361;-55
2021/12/27 03:40:07;;;;;;;45.28;19.27;;;;;;;10.11;100.00;99967.50;5096746;28;20086;-52
2021/12/27 03:42:33;;;;;;;42.88;18.00;;;;;;;10.02;100.00;99958.91;5099438;28;20043;-54
2021/12/27 03:44:59;;;;;;;40.28;16.98;;;;;;;10.09;100.00;99964.22;5103095;28;20032;-53
2021/12/27 03:47:24;;;;;;;64.28;18.73;;;;;;;9.86;100.00;99960.22;5099096;28;20225;-53
2021/12/27 03:49:50;;;;;;;51.77;19.07;;;;;;;9.80;100.00;99952.22;5096247;28;20115;-55
2021/12/27 03:52:15;;;;;;;33.57;15.67;;;;;;;9.60;100.00;99948.63;5096620;28;20486;-54
2021/12/27 03:54:40;;;;;;;39.13;17.47;;;;;;;9.78;100.00;99949.78;5096084;28;20032;-52
2021/12/27 03:57:07;;;;;;;33.30;17.30;;;;;;;9.93;100.00;99943.38;5096442;28;20036;-53
2021/12/27 03:59:48;;;;;;;40.53;18.05;;;;;;;9.92;100.00;99941.69;5094968;28;20367;-50
2021/12/27 04:02:15;;;;;;;39.92;16.80;;;;;;;9.99;100.00;99931.81;5096478;28;20380;-50
2021/12/27 04:04:41;;;;;;;;;;;;;;;9.64;100.00;99934.84;5094948;28;20044;-53
2021/12/27 04:07:08;;;;;;;38.60;16.27;;;;;;;9.90;100.00;99936.59;5095992;28;20010;-54
2021/12/27 04:09:34;;;;;;;35.23;17.17;;;;;;;9.75;100.00;99926.19;5096175;28;20464;-52
2021/12/27 04:12:00;;;;;;;41.00;19.67;;;;;;;9.94;100.00;99924.44;5096431;28;20276;-55
2021/12/27 04:14:25;;;;;;;41.30;19.10;;;;;;;9.87;100.00;99927.13;5094845;28;20467;-51
2021/12/27 04:16:52;;;;;;;44.65;19.63;;;;;;;9.79;100.00;99927.41;5095337;28;20362;-52
2021/12/27 04:19:18;;;;;;;;;;;;;;;9.84;100.00;99926.78;5095972;28;20050;-52
2021/12/27 04:21:43;;;;;;;40.27;19.47;;;;;;;9.30;100.00;99922.44;5095784;28;19912;-54
2021/12/27 04:24:09;;;;;;;46.17;20.80;;;;;;;9.31;100.00;99915.25;5094499;28;20031;-52
2021/12/27 04:26:34;;;;;;;53.70;22.30;;;;;;;9.33;100.00;99908.69;5078130;28;20075;-54
2021/12/27 04:29:00;;;;;;;51.73;20.20;;;;;;;9.22;100.00;99911.97;5096425;28;20709;-52
2021/12/27 04:31:25;;;;;;;45.43;19.57;;;;;;;9.33;100.00;99913.19;5094247;28;20089;-56
2021/12/27 04:33:51;;;;;;;48.25;21.05;;;;;;;9.41;100.00;99904.97;5095373;28;20276;-54
2021/12/27 04:36:17;;;;;;;46.17;19.53;;;;;;;9.72;100.00;99911.41;5096009;28;20040;-52
2021/12/27 04:38:43;;;;;;;42.55;18.52;;;;;;;9.64;100.00;99910.81;5096177;28;20127;-54
2021/12/27 04:41:10;;;;;;;42.00;20.85;;;;;;;9.59;100.00;99906.94;5095198;28;20425;-55
2021/12/27 04:43:36;;;;;;;52.85;20.80;;;;;;;9.73;100.00;99917.56;5095529;28;20036;-53
2021/12/27 04:46:02;;;;;;;37.47;15.60;;;;;;;9.78;100.00;99912.41;5095410;28;20040;-55
2021/12/27 04:48:28;;;;;;;47.45;20.45;;;;;;;9.84;100.00;99913.41;5095141;28;20089;-52
2021/12/27 04:50:54;;;;;;;45.42;20.73;;;;;;;9.60;100.00;99913.13;5095014;28;20047;-52
2021/12/27 04:53:19;;;;;;;54.47;22.77;;;;;;;9.65;100.00;99910.63;5094961;28;20035;-52
2021/12/27 04:55:45;;;;;;;44.20;20.77;;;;;;;9.70;100.00;99904.66;5094941;28;20059;-52
2021/12/27 04:58:13;;;;;;;52.38;21.27;;;;;;;9.90;100.00;99900.00;5094303;28;20368;-52
2021/12/27 05:00:39;;;;;;;50.45;20.55;;;;;;;9.85;100.00;99893.69;5094519;28;20040;-55
2021/12/27 05:03:05;;;;;;;46.58;19.77;;;;;;;9.98;100.00;99898.13;5103509;28;20051;-52
2021/12/27 05:05:31;;;;;;;47.75;21.33;;;;;;;10.08;100.00;99900.34;5101004;28;20051;-51
2021/12/27 05:07:59;;;;;;;51.30;19.30;;;;;;;10.14;100.00;99902.94;5093462;28;20044;-52
2021/12/27 05:10:26;;;;;;;55.85;20.48;;;;;;;10.09;100.00;99883.28;5093252;28;20104;-52
2021/12/27 05:12:52;;;;;;;50.58;20.48;;;;;;;10.03;100.00;99890.28;5094893;28;20036;-53
2021/12/27 05:15:17;;;;;;;55.42;19.65;;;;;;;10.12;100.00;99886.31;5094401;28;20157;-53
2021/12/27 05:17:43;;;;;;;50.97;20.47;;;;;;;10.22;100.00;99883.16;5094254;28;20123;-50
2021/12/27 05:20:09;;;;;;;54.87;20.63;;;;;;;10.11;100.00;99887.34;5095729;28;20047;-56
2021/12/27 05:22:36;;;;;;;52.33;22.00;;;;;;;10.02;100.00;99884.13;5093404;28;20040;-53
2021/12/27 05:25:03;;;;;;;51.55;19.60;;;;;;;10.18;100.00;99882.81;5094068;28;20042;-55
2021/12/27 05:27:28;;;;;;;56.50;20.30;;;;;;;10.28;100.00;99878.81;5094078;28;20144;-49
2021/12/27 05:29:54;;;;;;;54.83;20.83;;;;;;;10.27;100.00;99875.34;5093994;28;20111;-51
2021/12/27 05:32:19;;;;;;;59.43;20.67;;;;;;;10.11;100.00;99879.34;5094413;28;20078;-55
2021/12/27 05:34:45;;;;;;;58.83;22.37;;;;;;;10.22;100.00;99877.81;5092770;28;20406;-54
2021/12/27 05:37:10;;;;;;;45.37;18.73;;;;;;;10.24;100.00;99881.09;5092930;28;20443;-54
2021/12/27 05:39:36;;;;;;;56.33;20.40;;;;;;;10.11;100.00;99871.31;5094900;28;20028;-56
2021/12/27 05:42:02;;;;;;;65.47;21.38;;;;;;;10.25;100.00;99872.03;5093937;28;20039;-54
2021/12/27 05:44:28;;;;;;;65.87;21.17;;;;;;;10.11;100.00;99871.31;5093913;28;20028;-55
2021/12/27 05:46:54;;;;;;;82.88;24.70;;;;;;;9.98;100.00;99868.75;5093727;28;20428;-53
2021/12/27 05:49:21;;;;;;;53.83;19.63;;;;;;;10.10;100.00;99875.03;5093348;28;20507;-53
2021/12/27 05:51:46;;;;;;;;;;;;;;;10.22;100.00;99875.16;5094124;28;20051;-52
2021/12/27 05:54:13;;;;;;;59.07;18.83;;;;;;;10.37;100.00;99871.34;5093676;28;19908;-53
2021/12/27 05:56:39;;;;;;;51.15;19.48;;;;;;;10.38;100.00;99876.50;5093579;28;20028;-54
2021/12/27 05:59:05;;;;;;;70.28;20.88;;;;;;;10.21;100.00;99870.84;5094181;28;20406;-52
2021/12/27 06:01:31;;;;;;;49.75;20.23;;;;;;;10.37;100.00;99858.78;5092597;28;20046;-54
2021/12/27 06:03:58;;;;;;;54.28;20.52;;;;;;;10.35;100.00;99866.22;5093938;28;20143;-54
2021/12/27 06:06:25;;;;;;;51.10;19.00;;;;;;;10.27;100.00;99872.66;5076341;28;20074;-53
2021/12/27 06:08:50;;;;;;;52.42;20.33;;;;;;;10.33;100.00;99874.47;5094443;28;20036;-51
2021/12/27 06:11:16;;;;;;;59.77;20.47;;;;;;;10.25;100.00;99874.72;5093119;28;20055;-52
2021/12/27 06:13:41;;;;;;;46.40;20.10;;;;;;;10.22;100.00;99869.00;5094201;28;20440;-53
2021/12/27 06:16:07;;;;;;;50.03;19.77;;;;;;;10.24;100.00;99866.94;5092467;28;20590;-55
2021/12/27 06:18:32;;;;;;;56.43;19.60;;;;;;;10.19;100.00;99881.75;5093875;28;20592;-56
2021/12/27 06:20:58;;;;;;;72.93;21.63;;;;;;;9.71;100.00;99876.94;5095612;28;20036;-52
2021/12/27 06:23:23;;;;;;;63.97;21.77;;;;;;;9.43;100.00;99880.72;5101719;28;20070;-54
2021/12/27 06:25:49;;;;;;;83.40;22.03;;;;;;;9.40;100.00;99870.47;5080159;28;20032;-54
2021/12/27 06:28:16;;;;;;;63.10;20.50;;;;;;;9.83;100.00;99875.19;5094362;28;20467;-53
2021/12/27 06:30:42;;;;;;;69.68;22.35;;;;;;;9.88;100.00;99875.38;5076279;28;20089;-53
2021/12/27 06:33:08;;;;;;;64.82;21.15;;;;;;;9.61;100.00;99880.84;5092595;28;20036;-55
2021/12/27 06:35:33;;;;;;;84.53;22.42;;;;;;;9.32;100.00;99884.88;5093546;28;20032;-55
2021/12/27 06:37:59;;;;;;;48.78;20.48;;;;;;;9.67;100.00;99875.69;5093448;28;20375;-53
2021/12/27 06:40:25;;;;;;;69.47;23.13;;;;;;;9.68;100.00;99880.00;5096259;28;20039;-56
2021/12/27 06:42:50;;;;;;;55.77;20.60;;;;;;;9.84;100.00;99868.81;5097267;28;20039;-53
2021/12/27 06:45:16;;;;;;;73.80;22.13;;;;;;;10.05;100.00;99864.19;5097980;28;20371;-54
2021/12/27 06:47:41;;;;;;;66.72;23.13;;;;;;;10.28;100.00;99865.47;5097799;28;20491;-53
2021/12/27 06:50:09;;;;;;;76.03;24.00;;;;;;;10.33;100.00;99863.78;5097427;28;20040;-52
2021/12/27 06:52:35;;;;;;;59.05;21.67;;;;;;;10.29;100.00;99861.75;5097573;28;20040;-55
2021/12/27 06:55:00;;;;;;;57.10;21.83;;;;;;;10.33;100.00;99854.94;5097679;28;20367;-54
2021/12/27 06:57:26;;;;;;;68.80;23.45;;;;;;;10.29;100.00;99861.75;5097340;28;20032;-52
2021/12/27 06:59:51;;;;;;;48.70;21.33;;;;;;;10.38;100.00;99860.47;5097079;28;20032;-55
2021/12/27 07:02:17;;;;;;;55.00;21.17;;;;;;;10.38;100.00;99855.13;5097207;28;20039;-55
2021/12/27 07:04:42;;;;;;;50.40;19.87;;;;;;;10.24;100.00;99856.25;5096977;28;20121;-55
2021/12/27 07:07:08;;;;;;;54.67;20.60;;;;;;;10.14;100.00;99849.50;5097047;28;20063;-54
2021/12/27 07:09:33;;;;;;;49.27;19.17;;;;;;;10.42;100.00;99842.97;5095782;28;20060;-53
2021/12/27 07:11:59;;;;;;;46.07;19.93;;;;;;;10.54;100.00;99850.25;5097012;28;20265;-53
2021/12/27 07:14:25;;;;;;;47.55;20.98;;;;;;;10.60;100.00;99839.50;5096793;28;20068;-52
2021/12/27 07:16:50;;;;;;;50.20;19.17;;;;;;;10.51;100.00;99840.00;5097137;28;20432;-54
2021/12/27 07:19:16;;;;;;;37.20;18.77;;;;;;;10.57;100.00;99844.47;5095646;28;20276;-54
2021/12/27 07:21:41;;;;;;;46.63;19.57;;;;;;;10.56;100.00;99850.84;5097164;28;20032;-51
2021/12/27 07:24:07;;;;;;;41.20;18.98;;;;;;;10.28;100.00;99854.75;5095319;28;20123;-54
2021/12/27 07:26:33;;;;;;;44.72;20.42;;;;;;;10.09;100.00;99852.03;5096517;28;20467;-53
2021/12/27 07:28:59;;;;;;;41.50;18.20;;;;;;;10.24;100.00;99850.91;5095209;28;20032;-55
2021/12/27 07:31:24;;;;;;;47.42;18.80;;;;;;;10.16;100.00;99850.13;5095571;28;20277;-52
2021/12/27 07:33:50;;;;;;;48.07;19.13;;;;;;;10.44;100.00;99832.03;5096378;28;20375;-51
2021/12/27 07:36:16;;;;;;;41.97;19.73;;;;;;;10.59;100.00;99834.38;5095370;28;20072;-55
2021/12/27 07:38:42;;;;;;;39.90;18.65;;;;;;;10.70;100.00;99833.66;5096551;28;20039;-55
2021/12/27 07:41:08;;;;;;;37.78;18.30;;;;;;;10.34;100.00;99827.16;5097331;28;20043;-52
2021/12/27 07:43:34;;;;;;;38.95;17.45;;;;;;;10.43;100.00;99830.41;5098221;28;20036;-55
2021/12/27 07:45:59;;;;;;;43.37;19.23;;;;;;;10.70;100.00;99835.50;5097384;28;20375;-52
2021/12/27 07:48:25;;;;;;;37.37;19.17;;;;;;;10.86;100.00;99836.81;5078153;28;20271;-53
2021/12/27 07:50:51;;;;;;;41.03;18.07;;;;;;;10.64;100.00;99839.91;5095985;28;20032;-54
2021/12/27 07:53:16;;;;;;;37.83;18.27;;;;;;;10.89;100.00;99826.47;5096888;28;20031;-53
2021/12/27 07:55:42;;;;;;;39.50;18.57;;;;;;;10.75;100.00;99819.63;5094728;28;20040;-51
2021/12/27 07:58:07;;;;;;;38.15;17.60;;;;;;;11.02;100.00;99817.47;5095885;28;20047;-52
2021/12/27 08:00:33;;;;;;;33.78;17.25;;;;;;;11.03;100.00;99824.47;5096267;28;20050;-55
2021/12/27 08:02:58;;;;;;;35.70;18.07;;;;;;;11.09;100.00;99827.31;5095766;28;20043;-54
2021/12/27 08:05:24;;;;;;;38.47;18.63;;;;;;;10.99;100.00;99833.97;5094548;28;20070;-52
2021/12/27 08:07:49;;;;;;;34.77;17.43;;;;;;;10.86;100.00;99832.25;5095261;28;20057;-55
2021/12/27 08:10:16;;;;;;;33.70;18.07;;;;;;;11.03;100.00;99823.66;5096454;28;20089;-54
2021/12/27 08:12:43;;;;;;;37.90;18.00;;;;;;;11.12;100.00;99829.53;5095925;28;20122;-53
2021/12/27 08:15:10;;;;;;;32.22;17.27;;;;;;;11.15;100.00;99827.19;5094630;28;20107;-52
2021/12/27 08:17:36;;;;;;;34.28;17.08;;;;;;;11.17;100.00;99835.03;5094563;28;20036;-53
2021/12/27 08:20:04;;;;;;;30.30;16.38;;;;;;;11.05;100.00;99830.41;5095957;28;20040;-54
2021/12/27 08:22:30;;;;;;;35.35;17.10;;;;;;;11.11;100.00;99831.38;5094724;28;20414;-56
2021/12/27 08:24:55;;;;;;;32.78;16.08;;;;;;;11.12;100.00;99830.34;5095713;28;20028;-56
2021/12/27 08:27:22;;;;;;;33.63;16.92;;;;;;;10.82;100.00;99833.75;5095420;28;20487;-54
2021/12/27 08:29:48;;;;;;;27.00;14.73;;;;;;;10.83;100.00;99834.56;5094240;28;20039;-55
2021/12/27 08:32:14;;;;;;;31.43;15.90;;;;;;;11.02;100.00;99827.38;5095273;28;20024;-55
2021/12/27 08:34:40;;;;;;;36.30;16.25;;;;;;;11.39;100.00;99837.22;5095099;28;20154;-53
2021/12/27 08:37:05;;;;;;;33.90;16.10;;;;;;;11.22;100.00;99837.84;5095435;28;20060;-54
2021/12/27 08:39:31;;;;;;;33.28;17.73;;;;;;;10.99;100.00;99839.31;5095511;28;20456;-55
2021/12/27 08:41:57;;;;;;;34.13;16.73;;;;;;;10.96;100.00;99834.41;5094949;28;20495;-51
2021/12/27 08:44:23;;;;;;;33.67;17.63;;;;;;;11.30;100.00;99832.19;5095339;28;20040;-54
2021/12/27 08:46:49;;;;;;;40.33;16.92;;;;;;;11.26;100.00;99828.31;5096636;28;20046;-53
2021/12/27 08:49:15;;;;;;;32.20;16.75;;;;;;;11.10;100.00;99834.28;5096855;28;20032;-52
2021/12/27 08:51:40;;;;;;;36.00;17.33;;;;;;;10.84;100.00;99836.19;5095800;28;20062;-54
2021/12/27 08:54:06;;;;;;;35.22;17.02;;;;;;;10.78;100.00;99840.59;5094793;28;20032;-50
2021/12/27 08:56:32;;;;;;;34.25;17.08;;;;;;;10.85;100.00;99827.97;5095467;28;20036;-52
2021/12/27 08:58:59;;;;;;;31.48;16.20;;;;;;;11.33;100.00;99834.41;5095856;28;20046;-52
2021/12/27 09:01:24;;;;;;;32.53;16.77;;;;;;;11.47;100.00;99831.56;5078146;28;20038;-55
2021/12/27 09:03:50;;;;;;;33.43;17.47;;;;;;;11.14;100.00;99835.47;5098549;28;20331;-52
2021/12/27 09:06:16;;;;;;;30.33;15.73;;;;;;;11.14;100.00;99838.94;5095815;28;20085;-53
2021/12/27 09:08:41;;;;;;;35.73;16.30;;;;;;;10.97;100.00;99833.38;5094323;28;20093;-54
2021/12/27 09:11:08;;;;;;;30.73;15.65;;;;;;;11.13;100.00;99828.47;5094692;28;20043;-54
2021/12/27 09:13:37;;;;;;;32.47;16.13;;;;;;;11.35;100.00;99825.34;5096469;28;20089;-53
2021/12/27 09:16:03;;;;;;;33.20;16.13;;;;;;;11.48;100.00;99819.81;5094813;28;20118;-53
2021/12/27 09:18:31;;;;;;;33.67;16.20;;;;;;;11.66;100.00;99823.47;5093196;28;20333;-55
2021/12/27 09:20:58;;;;;;;29.65;15.13;;;;;;;11.61;100.00;99816.13;5094867;28;20039;-51
2021/12/27 09:23:24;;;;;;;34.35;15.85;;;;;;;11.89;100.00;99809.34;5095453;28;20077;-54
2021/12/27 09:25:50;;;;;;;38.00;16.92;;;;;;;12.21;100.00;99809.09;5094963;28;20044;-56
2021/12/27 09:28:16;;;;;;;32.20;15.90;;;;;;;12.33;100.00;99790.31;5093643;28;20521;-54
2021/12/27 09:30:42;;;;;;;32.35;15.90;;;;;;;12.59;100.00;99790.91;5094320;28;20474;-55
2021/12/27 09:33:08;;;;;;;31.90;16.03;;;;;;;12.95;100.00;99791.69;5094078;28;20043;-53
2021/12/27 09:35:34;;;;;;;25.70;13.53;;;;;;;13.04;100.00;99800.97;5094682;28;20028;-53
2021/12/27 09:38:00;;;;;;;29.55;15.57;;;;;;;13.75;100.00;99799.09;5094775;28;20292;-51
2021/12/27 09:40:26;;;;;;;28.95;15.85;;;;;;;14.49;100.00;99803.50;5094754;28;20086;-54
2021/12/27 09:42:53;;;;;;;24.05;13.65;;;;;;;14.41;100.00;99814.69;5094182;28;20036;-54
2021/12/27 09:45:20;;;;;;;24.08;13.82;;;;;;;14.13;100.00;99811.03;5094657;28;20111;-55
2021/12/27 09:47:47;;;;;;;21.75;13.10;;;;;;;13.67;100.00;99813.72;5094491;28;20040;-53
2021/12/27 09:50:18;;;;;;;24.25;13.60;;;;;;;13.11;100.00;99813.44;5093993;28;20128;-51
2021/12/27 09:52:44;;;;;;;23.92;13.02;;;;;;;12.47;100.00;99815.03;5093075;28;20065;-55
2021/12/27 09:55:11;;;;;;;29.85;13.95;;;;;;;12.72;100.00;99824.72;5094058;28;20031;-54
2021/12/27 09:57:36;;;;;;;26.20;13.00;;;;;;;12.33;100.00;99825.97;5093850;28;20043;-53
2021/12/27 10:00:07;;;;;;;28.35;13.95;;;;;;;12.28;100.00;99822.38;5094225;28;20032;-53
2021/12/27 10:02:38;;;;;;;25.00;13.80;;;;;;;12.45;100.00;99809.91;5094357;28;20383;-51
2021/12/27 10:05:04;;;;;;;28.52;14.25;;;;;;;13.47;100.00;99816.88;5092763;28;20467;-53
2021/12/27 10:07:30;;;;;;;28.45;15.13;;;;;;;13.94;100.00;99812.31;5093744;28;20040;-56
2021/12/27 10:09:59;;;;;;;26.05;14.60;;;;;;;14.38;100.00;99812.50;5093528;28;20468;-55
2021/12/27 10:12:26;;;;;;;24.17;14.30;;;;;;;15.31;100.00;99807.50;5093692;28;20069;-53
2021/12/27 10:15:00;;;;;;;23.43;13.40;;;;;;;16.05;100.00;99794.50;5094022;28;20036;-56
2021/12/27 10:17:30;;;;;;;20.53;12.00;;;;;;;15.87;100.00;99787.59;5093676;28;20281;-53
2021/12/27 10:20:07;;;;;;;19.07;12.00;;;;;;;16.26;100.00;99791.97;5094313;28;20265;-57
2021/12/27 10:22:38;;;;;;;19.30;10.98;;;;;;;16.14;100.00;99784.84;5093812;28;20273;-54
2021/12/27 10:25:08;;;;;;;17.77;10.77;;;;;;;15.68;100.00;99785.28;5096226;28;20036;-56
2021/12/27 10:27:36;;;;;;;17.90;10.97;;;;;;;15.53;100.00;99777.84;5101390;28;20256;-55
2021/12/27 10:30:13;;;;;;;16.77;10.23;;;;;;;15.56;100.00;99771.13;5099372;28;20269;-54
2021/12/27 10:32:39;;;;;;;;;;;;;;;15.98;100.00;99766.97;5094829;28;20271;-54
2021/12/27 10:35:06;;;;;;;20.67;9.93;;;;;;;16.42;100.00;99774.00;5093663;28;19912;-52
2021/12/27 10:37:32;;;;;;;18.67;10.13;;;;;;;16.43;100.00;99760.25;5093776;28;20031;-52
2021/12/27 10:40:06;;;;;;;16.48;10.73;;;;;;;16.86;100.00;99752.09;5093696;28;20329;-52
2021/12/27 10:42:46;;;;;;;18.20;10.97;;;;;;;17.94;89.80;99744.44;5094028;28;20028;-53
2021/12/27 10:45:20;;;;;;;16.13;9.97;;;;;;;18.89;78.50;99731.22;5075643;28;20263;-54
2021/12/27 10:47:52;;;;;;;15.63;8.50;;;;;;;18.39;79.65;99747.41;5093865;28;20272;-59
2021/12/27 10:50:20;;;;;;;15.27;9.20;;;;;;;17.86;82.68;99751.19;5092790;28;20356;-56
2021/12/27 10:52:59;;;;;;;14.57;8.70;;;;;;;16.99;97.57;99756.22;5093935;28;20276;-56
2021/12/27 10:55:46;;;;;;;14.70;9.47;;;;;;;16.44;100.00;99755.66;5093166;28;20261;-54
2021/12/27 10:58:12;;;;;;;;;;;;;;;15.86;100.00;99750.94;5094063;28;20253;-64
2021/12/27 11:00:38;;;;;;;19.97;9.50;;;;;;;15.69;100.00;99741.06;5093470;28;19908;-55
2021/12/27 11:03:04;;;;;;;20.17;10.00;;;;;;;15.61;100.00;99744.25;5093282;28;20028;-55
2021/12/27 11:05:35;;;;;;;14.75;8.93;;;;;;;15.67;100.00;99743.22;5093578;28;20295;-55
2021/12/27 11:08:05;;;;;;;14.87;9.13;;;;;;;15.23;100.00;99744.16;5093940;28;20036;-53
2021/12/27 11:10:35;;;;;;;14.83;9.53;;;;;;;15.17;100.00;99753.22;5089779;28;20264;-53
2021/12/27 11:13:03;;;;;;;13.90;8.77;;;;;;;14.82;100.00;99736.41;5093368;28;20318;-52